Flight Track Log - Related Links

Times and Time Zones

All times are in EDT time to prevent confusion due to time zone crossing. See the UAL143 flight status page for this flight to view local times or setup timezone preferences in your user account.

Time Position Orientation Groundspeed Altitude Reporting Facility
EDT Latitude Longitude Course Direction KTS MPH feet Rate Location/Type
Thu 06:04:00 PM 6.8444 2.8705 299° West  Level Estimated
Thu 06:05:00 PM 6.9111 2.7578 294° West  Level Estimated
Thu 06:06:00 PM 6.9136 2.6266 271° West  Level FlightAware Approximate
Thu 06:07:00 PM 6.9161 2.4954 271° West  Level FlightAware Approximate
Thu 06:08:00 PM 6.9827 2.3826 293° West  Level Estimated
Thu 06:09:00 PM 7.0492 2.2698 297° West  Level Estimated
Thu 06:10:00 PM 7.0555 2.1386 273° West  Level FlightAware Approximate
Thu 06:11:00 PM 7.1220 2.0257 300° West  Level Estimated
Thu 06:12:00 PM 7.1884 1.9128 297° West  Level Estimated
Thu 06:13:00 PM 7.2549 1.7998 293° West  Level Estimated
Thu 06:14:00 PM 7.3213 1.6868 295° West  Level Estimated
Thu 06:15:00 PM 7.3282 1.5557 273° West  Level FlightAware Approximate
Thu 06:16:00 PM 7.3945 1.4426 295° West  Level Estimated
Thu 06:17:00 PM 7.4064 1.3118 275° West  Level FlightAware Approximate
Thu 06:18:00 PM 7.4181 1.1810 275° West  Level FlightAware Approximate
Thu 06:19:00 PM 7.4844 1.0678 294° West  Level Estimated
Thu 06:20:00 PM 7.5506 0.9546 295° West  Level Estimated
Thu 06:21:00 PM 7.6013 0.8336 293° West  Level FlightAware Approximate
Thu 06:22:00 PM 7.6520 0.7125 293° West  Level FlightAware Approximate
Thu 06:23:00 PM 7.7026 0.5914 293° West  Level FlightAware Approximate
Thu 06:24:00 PM 7.7532 0.4702 293° West  Level FlightAware Approximate
Thu 06:25:00 PM 7.8038 0.3490 293° West  Level FlightAware Approximate
Thu 06:26:00 PM 7.8543 0.2278 293° West  Level FlightAware Approximate
Thu 06:27:00 PM 7.9048 0.1066 293° West  Level FlightAware Approximate
Thu 06:28:00 PM 7.9553 -0.0147 293° West  Level FlightAware Approximate
Thu 06:29:00 PM 8.0057 -0.1360 293° West  Level FlightAware Approximate
Thu 06:30:00 PM 8.0562 -0.2573 293° West  Level FlightAware Approximate
Thu 06:31:00 PM 8.1065 -0.3787 293° West  Level FlightAware Approximate
Thu 06:32:00 PM 8.1568 -0.5001 293° West  Level FlightAware Approximate
Thu 06:33:00 PM 8.2071 -0.6215 293° West  Level FlightAware Approximate
Thu 06:34:00 PM 8.2574 -0.7429 293° West  Level FlightAware Approximate
Thu 06:35:00 PM 8.3076 -0.8644 293° West  Level FlightAware Approximate
Thu 06:36:00 PM 8.3578 -0.9859 293° West  Level FlightAware Approximate
Thu 06:37:00 PM 8.4080 -1.1075 293° West  Level FlightAware Approximate
Thu 06:38:00 PM 8.4581 -1.2290 293° West  Level FlightAware Approximate
Thu 06:39:00 PM 8.5081 -1.3506 293° West  Level FlightAware Approximate
Thu 06:40:00 PM 8.5582 -1.4723 293° West  Level FlightAware Approximate
Thu 06:41:00 PM 8.6082 -1.5939 293° West  Level FlightAware Approximate
Thu 06:42:00 PM 8.6581 -1.7156 293° West  Level FlightAware Approximate
Thu 06:43:00 PM 8.7080 -1.8374 293° West  Level FlightAware Approximate
Thu 06:44:00 PM 8.7579 -1.9591 293° West  Level FlightAware Approximate
Thu 06:45:00 PM 8.8078 -2.0809 293° West  Level FlightAware Approximate
Thu 06:46:00 PM 8.8576 -2.2028 292° West  Level FlightAware Approximate
Thu 06:47:00 PM 8.9073 -2.3246 292° West  Level FlightAware Approximate
Thu 06:48:00 PM 8.9570 -2.4465 292° West  Level FlightAware Approximate
Thu 06:49:00 PM 9.0067 -2.5684 292° West  Level FlightAware Approximate
Thu 06:50:00 PM 9.0564 -2.6904 292° West  Level FlightAware Approximate
Thu 06:51:00 PM 9.1060 -2.8124 292° West  Level FlightAware Approximate
Thu 06:52:00 PM 9.1555 -2.9344 292° West  Level FlightAware Approximate
Thu 06:53:00 PM 9.2050 -3.0565 292° West  Level FlightAware Approximate
Thu 06:54:00 PM 9.2545 -3.1786 292° West  Level FlightAware Approximate
Thu 06:55:00 PM 9.3040 -3.3007 292° West  Level FlightAware Approximate
Thu 06:56:00 PM 9.3534 -3.4229 292° West  Level FlightAware Approximate
Thu 06:57:00 PM 9.4027 -3.5451 292° West  Level FlightAware Approximate
Thu 06:58:00 PM 9.4520 -3.6673 292° West  Level FlightAware Approximate
Thu 06:59:00 PM 9.5013 -3.7896 292° West  Level FlightAware Approximate
Thu 07:00:00 PM 9.5505 -3.9119 292° West  Level FlightAware Approximate
Thu 07:01:00 PM 9.5997 -4.0343 292° West  Level FlightAware Approximate
Thu 07:02:00 PM 9.6489 -4.1566 292° West  Level FlightAware Approximate
Thu 07:03:00 PM 9.6980 -4.2790 292° West  Level FlightAware Approximate
Thu 07:04:00 PM 9.7470 -4.4015 292° West  Level FlightAware Approximate
Thu 07:05:00 PM 9.7960 -4.5240 292° West  Level FlightAware Approximate
Thu 07:06:00 PM 9.8450 -4.6465 292° West  Level FlightAware Approximate
Thu 07:07:00 PM 9.8939 -4.7691 292° West  Level FlightAware Approximate
Thu 07:08:00 PM 9.9428 -4.8917 292° West  Level FlightAware Approximate
Thu 07:09:00 PM 9.9916 -5.0143 292° West  Level FlightAware Approximate
Thu 07:10:00 PM 10.0404 -5.1370 292° West  Level FlightAware Approximate
Thu 07:11:00 PM 10.0892 -5.2597 292° West  Level FlightAware Approximate
Thu 07:12:00 PM 10.1379 -5.3824 292° West  Level FlightAware Approximate
Thu 07:13:00 PM 10.1865 -5.5052 292° West  Level FlightAware Approximate
Thu 07:14:00 PM 10.2351 -5.6280 292° West  Level FlightAware Approximate
Thu 07:15:00 PM 10.2837 -5.7509 292° West  Level FlightAware Approximate
Thu 07:16:00 PM 10.3322 -5.8737 292° West  Level FlightAware Approximate
Thu 07:17:00 PM 10.3807 -5.9967 292° West  Level FlightAware Approximate
Thu 07:18:00 PM 10.4291 -6.1196 292° West  Level FlightAware Approximate
Thu 07:19:00 PM 10.4775 -6.2427 292° West  Level FlightAware Approximate
Thu 07:20:00 PM 10.5258 -6.3657 292° West  Level FlightAware Approximate
Thu 07:21:00 PM 10.5741 -6.4888 292° West  Level FlightAware Approximate
Thu 07:22:00 PM 10.6223 -6.6119 292° West  Level FlightAware Approximate
Thu 07:23:00 PM 10.6705 -6.7351 292° West  Level FlightAware Approximate
Thu 07:24:00 PM 10.7187 -6.8583 292° West  Level FlightAware Approximate
Thu 07:25:00 PM 10.7668 -6.9815 292° West  Level FlightAware Approximate
Thu 07:26:00 PM 10.8148 -7.1048 292° West  Level FlightAware Approximate
Thu 07:27:00 PM 10.8628 -7.2281 292° West  Level FlightAware Approximate
Thu 07:28:00 PM 10.9107 -7.3514 292° West  Level FlightAware Approximate
Thu 07:29:00 PM 10.9586 -7.4749 292° West  Level FlightAware Approximate
Thu 07:30:00 PM 11.0064 -7.5983 292° West  Level FlightAware Approximate
Thu 07:31:00 PM 11.0550 -7.7237 292° West  Level FlightAware Approximate
Thu 07:32:00 PM 11.1035 -7.8491 292° West  Level FlightAware Approximate
Thu 07:33:00 PM 11.1519 -7.9746 291° West  Level FlightAware Approximate
Thu 07:34:00 PM 11.2003 -8.1001 291° West  Level FlightAware Approximate
Thu 07:35:00 PM 11.2486 -8.2257 291° West  Level FlightAware Approximate
Thu 07:36:00 PM 11.2969 -8.3513 291° West  Level FlightAware Approximate
Thu 07:37:00 PM 11.3451 -8.4769 291° West  Level FlightAware Approximate
Thu 07:38:00 PM 11.3933 -8.6026 291° West  Level FlightAware Approximate
Thu 07:39:00 PM 11.4414 -8.7283 291° West  Level FlightAware Approximate
Thu 07:40:00 PM 11.4894 -8.8541 291° West  Level FlightAware Approximate
Thu 07:41:00 PM 11.5374 -8.9799 291° West  Level FlightAware Approximate
Thu 07:42:00 PM 11.5854 -9.1058 291° West  Level FlightAware Approximate
Thu 07:43:00 PM 11.6333 -9.2317 291° West  Level FlightAware Approximate
Thu 07:44:00 PM 11.6811 -9.3576 291° West  Level FlightAware Approximate
Thu 07:45:00 PM 11.7289 -9.4836 291° West  Level FlightAware Approximate
Thu 07:46:00 PM 11.7767 -9.6096 291° West  Level FlightAware Approximate
Thu 07:47:00 PM 11.8243 -9.7357 291° West  Level FlightAware Approximate
Thu 07:48:00 PM 11.8720 -9.8618 291° West  Level FlightAware Approximate
Thu 07:49:00 PM 11.9195 -9.9880 291° West  Level FlightAware Approximate
Thu 07:50:00 PM 11.9670 -10.1142 291° West  Level FlightAware Approximate
Thu 07:51:00 PM 12.0145 -10.2404 291° West  Level FlightAware Approximate
Thu 07:52:00 PM 12.0619 -10.3667 291° West  Level FlightAware Approximate
Thu 07:53:00 PM 12.1092 -10.4930 291° West  Level FlightAware Approximate
Thu 07:54:00 PM 12.1565 -10.6194 291° West  Level FlightAware Approximate
Thu 07:55:00 PM 12.2029 -10.7437 291° West  Level FlightAware Approximate
Thu 07:56:00 PM 12.2493 -10.8681 291° West  Level FlightAware Approximate
Thu 07:57:00 PM 12.2957 -10.9925 291° West  Level FlightAware Approximate
Thu 07:58:00 PM 12.3419 -11.1170 291° West  Level FlightAware Approximate
Thu 07:59:00 PM 12.3882 -11.2415 291° West  Level FlightAware Approximate
Thu 08:00:00 PM 12.4343 -11.3660 291° West  Level FlightAware Approximate
Thu 08:01:00 PM 12.4804 -11.4906 291° West  Level FlightAware Approximate
Thu 08:02:00 PM 12.5265 -11.6153 291° West  Level FlightAware Approximate
Thu 08:03:00 PM 12.5724 -11.7399 291° West  Level FlightAware Approximate
Thu 08:04:00 PM 12.6184 -11.8647 291° West  Level FlightAware Approximate
Thu 08:05:00 PM 12.6643 -11.9894 291° West  Level FlightAware Approximate
Thu 08:06:00 PM 12.7101 -12.1142 291° West  Level FlightAware Approximate
Thu 08:07:00 PM 12.7558 -12.2391 291° West  Level FlightAware Approximate
Thu 08:08:00 PM 12.8015 -12.3640 291° West  Level FlightAware Approximate
Thu 08:09:00 PM 12.8472 -12.4889 291° West  Level FlightAware Approximate
Thu 08:10:00 PM 12.8927 -12.6139 291° West  Level FlightAware Approximate
Thu 08:11:00 PM 12.9383 -12.7390 290° West  Level FlightAware Approximate
Thu 08:12:00 PM 12.9837 -12.8641 290° West  Level FlightAware Approximate
Thu 08:13:00 PM 13.0291 -12.9890 290° West  Level FlightAware Approximate
Thu 08:14:00 PM 13.0905 -13.1065 293° West  Level Estimated
Thu 08:15:00 PM 13.1386 -13.2305 292° West  Level FlightAware Approximate
Thu 08:16:00 PM 13.1866 -13.3545 292° West  Level FlightAware Approximate
Thu 08:17:00 PM 13.2345 -13.4785 292° West  Level FlightAware Approximate
Thu 08:18:00 PM 13.2824 -13.6026 292° West  Level FlightAware Approximate
Thu 08:19:00 PM 13.3302 -13.7267 292° West  Level FlightAware Approximate
Thu 08:20:00 PM 13.3780 -13.8509 292° West  Level FlightAware Approximate
Thu 08:21:00 PM 13.4257 -13.9751 292° West  Level FlightAware Approximate
Thu 08:22:00 PM 13.4734 -14.0994 292° West  Level FlightAware Approximate
Thu 08:23:00 PM 13.5210 -14.2237 292° West  Level FlightAware Approximate
Thu 08:24:00 PM 13.5685 -14.3481 291° West  Level FlightAware Approximate
Thu 08:25:00 PM 13.6159 -14.4725 291° West  Level FlightAware Approximate
Thu 08:26:00 PM 13.6634 -14.5969 291° West  Level FlightAware Approximate
Thu 08:27:00 PM 13.7107 -14.7215 291° West  Level FlightAware Approximate
Thu 08:28:00 PM 13.7580 -14.8460 291° West  Level FlightAware Approximate
Thu 08:29:00 PM 13.8052 -14.9706 291° West  Level FlightAware Approximate
Thu 08:30:00 PM 13.8523 -15.0953 291° West  Level FlightAware Approximate
Thu 08:31:00 PM 13.8994 -15.2200 291° West  Level FlightAware Approximate
Thu 08:32:00 PM 13.9465 -15.3448 291° West  Level FlightAware Approximate
Thu 08:33:00 PM 13.9934 -15.4697 291° West  Level FlightAware Approximate
Thu 08:34:00 PM 14.0403 -15.5945 291° West  Level FlightAware Approximate
Thu 08:35:00 PM 14.1007 -15.7131 291° West  Level Estimated
Thu 08:36:00 PM 14.1477 -15.8380 291° West  Level FlightAware Approximate
Thu 08:37:00 PM 14.1947 -15.9629 291° West  Level FlightAware Approximate
Thu 08:38:00 PM 14.2416 -16.0879 291° West  Level FlightAware Approximate
Thu 08:39:00 PM 14.2885 -16.2130 291° West  Level FlightAware Approximate
Thu 08:40:00 PM 14.3353 -16.3380 291° West  Level FlightAware Approximate
Thu 08:41:00 PM 14.3820 -16.4632 291° West  Level FlightAware Approximate
Thu 08:42:00 PM 14.4287 -16.5884 291° West  Level FlightAware Approximate
Thu 08:43:00 PM 14.4753 -16.7136 291° West  Level FlightAware Approximate
Thu 08:44:00 PM 14.5218 -16.8389 291° West  Level FlightAware Approximate
Thu 08:45:00 PM 14.5682 -16.9643 291° West  Level FlightAware Approximate
Thu 08:46:00 PM 14.6146 -17.0896 291° West  Level FlightAware Approximate
Thu 08:47:00 PM 14.6610 -17.2151 291° West  Level FlightAware Approximate
Thu 08:48:00 PM 14.7072 -17.3406 291° West  Level FlightAware Approximate
Thu 08:49:00 PM 14.7534 -17.4662 291° West  Level FlightAware Approximate
Thu 08:50:00 PM 14.7995 -17.5918 291° West  Level FlightAware Approximate
Thu 08:51:00 PM 14.8456 -17.7174 291° West  Level FlightAware Approximate
Thu 08:52:00 PM 14.8916 -17.8431 291° West  Level FlightAware Approximate
Thu 08:53:00 PM 14.9375 -17.9689 291° West  Level FlightAware Approximate
Thu 08:54:00 PM 14.9833 -18.0947 291° West  Level FlightAware Approximate
Thu 08:55:00 PM 15.0426 -18.2145 287° West  Level Estimated
Thu 08:56:00 PM 15.0854 -18.3415 289° West  Level FlightAware Approximate
Thu 08:57:00 PM 15.1280 -18.4686 289° West  Level FlightAware Approximate
Thu 08:58:00 PM 15.1706 -18.5958 289° West  Level FlightAware Approximate
Thu 08:59:00 PM 15.2131 -18.7230 289° West  Level FlightAware Approximate
Thu 09:00:00 PM 15.2556 -18.8503 289° West  Level FlightAware Approximate
Thu 09:01:00 PM 15.3145 -18.9703 286° West  Level Estimated
Thu 09:02:00 PM 15.3535 -19.0988 288° West  Level FlightAware Approximate
Thu 09:03:00 PM 15.3925 -19.2273 287° West  Level FlightAware Approximate
Thu 09:04:00 PM 15.4314 -19.3559 287° West  Level FlightAware Approximate
Thu 09:05:00 PM 15.4703 -19.4845 287° West  Level FlightAware Approximate
Thu 09:06:00 PM 15.5090 -19.6132 287° West  Level FlightAware Approximate
Thu 09:07:00 PM 15.5477 -19.7419 287° West  Level FlightAware Approximate
Thu 09:08:00 PM 15.5863 -19.8707 287° West  Level FlightAware Approximate
Thu 09:09:00 PM 15.6248 -19.9995 287° West  Level FlightAware Approximate
Thu 09:10:00 PM 15.6633 -20.1284 287° West  Level FlightAware Approximate
Thu 09:11:00 PM 15.7016 -20.2573 287° West  Level FlightAware Approximate
Thu 09:12:00 PM 15.7399 -20.3863 287° West  Level FlightAware Approximate
Thu 09:13:00 PM 15.7782 -20.5153 287° West  Level FlightAware Approximate
Thu 09:13:45 PM 16.0770 -21.4360 285° West 492 566 34,000  Level FlightAware ADS-B
Thu 09:14:00 PM 15.8364 -20.6360 285° West  Level Estimated
Thu 09:14:29 PM 16.1030 -21.5360 285° West 493 567 34,000  Level FlightAware ADS-B
Thu 09:15:09 PM 16.1290 -21.6290 286° West 492 566 34,000  Level FlightAware ADS-B
Thu 09:15:45 PM 16.1500 -21.7100 285° West 491 565 34,000  Level FlightAware ADS-B
Thu 09:16:29 PM 16.1770 -21.8110 286° West 491 565 34,000  Level FlightAware ADS-B
Thu 09:17:14 PM 16.2040 -21.9110 286° West 490 564 34,000  Level FlightAware ADS-B
Thu 09:17:53 PM 16.2280 -22.0010 286° West 489 563 34,000  Level FlightAware ADS-B
Thu 09:18:37 PM 16.2540 -22.1000 285° West 489 563 34,000  Level FlightAware ADS-B
Thu 09:19:19 PM 16.2800 -22.1960 286° West 489 563 34,000  Level FlightAware ADS-B
Thu 09:19:58 PM 16.3060 -22.2820 287° West 488 562 34,000  Level FlightAware ADS-B
Thu 09:20:34 PM 16.3320 -22.3630 289° West 489 563 34,000  Level FlightAware ADS-B
Thu 09:21:19 PM 16.3620 -22.4640 287° West 489 563 34,000  Level FlightAware ADS-B
Thu 09:22:00 PM 16.3910 -22.5570 288° West 490 564 34,000 370 Level FlightAware ADS-B
Thu 09:22:40 PM 16.4180 -22.6480 287° West 491 565 34,500 714 Climbing FlightAware ADS-B
Thu 09:23:24 PM 16.4470 -22.7460 287° West 487 560 35,000 357 Climbing FlightAware ADS-B
Thu 09:24:04 PM 16.4740 -22.8360 287° West 486 559 35,000  Level FlightAware ADS-B
Thu 09:24:49 PM 16.5040 -22.9340 288° West 487 560 35,000  Level FlightAware ADS-B
Thu 09:25:28 PM 16.5310 -23.0230 288° West 487 560 35,000  Level FlightAware ADS-B
Thu 09:26:13 PM 16.5610 -23.1240 287° West 488 562 35,000  Level FlightAware ADS-B
Thu 09:26:52 PM 16.5870 -23.2120 287° West 489 563 35,000  Level FlightAware ADS-B
Thu 09:27:36 PM 16.6170 -23.3110 288° West 492 566 35,000  Level FlightAware ADS-B
Thu 09:28:17 PM 16.6440 -23.4020 287° West 492 566 35,000  Level FlightAware ADS-B
Thu 09:29:01 PM 16.6740 -23.5020 287° West 490 564 35,000  Level FlightAware ADS-B
Thu 09:29:40 PM 16.7000 -23.5910 287° West 489 563 35,000  Level FlightAware ADS-B
Thu 09:30:22 PM 16.7280 -23.6860 287° West 491 565 35,000  Level FlightAware ADS-B
Thu 09:31:05 PM 16.7570 -23.7830 287° West 492 566 35,000  Level FlightAware ADS-B
Thu 09:31:45 PM 16.7830 -23.8720 287° West 494 568 35,000  Level FlightAware ADS-B
Thu 09:32:26 PM 16.8120 -23.9680 288° West 494 568 35,000  Level FlightAware ADS-B
Thu 09:33:04 PM 16.8380 -24.0550 287° West 494 568 35,000  Level FlightAware ADS-B
Thu 09:33:44 PM 16.8640 -24.1450 287° West 494 568 35,000  Level FlightAware ADS-B
Thu 09:34:24 PM 16.8910 -24.2360 287° West 494 568 35,000  Level FlightAware ADS-B
Thu 09:35:04 PM 16.9180 -24.3300 287° West 494 568 35,000  Level FlightAware ADS-B
Thu 09:35:46 PM 16.9460 -24.4250 287° West 493 567 35,000  Level FlightAware ADS-B
Thu 09:36:25 PM 16.9700 -24.5080 287° West 492 566 35,000  Level FlightAware ADS-B
Thu 09:37:10 PM 17.0010 -24.6150 287° West 490 564 35,000  Level FlightAware ADS-B
Thu 09:37:34 PM 17.0160 -24.6660 287° West 492 566 35,000  Level FlightAware ADS-B
Thu 09:38:20 PM 17.0470 -24.7730 287° West 492 566 35,000  Level FlightAware ADS-B
Thu 09:38:58 PM 17.0710 -24.8570 287° West 492 566 35,000  Level FlightAware ADS-B
Thu 09:39:38 PM 17.0950 -24.9410 287° West 492 566 35,000  Level FlightAware ADS-B
Thu 09:40:14 PM 17.1140 -25.0110 286° West 492 566 35,000  Level FlightAware ADS-B
Thu 09:41:02 PM 17.1400 -25.1050 286° West 492 566 35,000  Level FlightAware ADS-B
Thu 09:41:51 PM 17.1660 -25.2000 286° West 492 566 35,000  Level FlightAware ADS-B
Thu 09:42:29 PM 17.2070 -25.3300 288° West 493 567 35,000  Level FlightAware ADS-B
Thu 09:43:05 PM 17.2260 -25.4000 286° West 493 567 35,000  Level FlightAware ADS-B
Thu 09:43:41 PM 17.2460 -25.4700 287° West 493 567 35,000  Level FlightAware ADS-B
Thu 09:44:29 PM 17.2710 -25.5640 286° West 493 567 35,000  Level FlightAware ADS-B
Thu 09:45:05 PM 17.2900 -25.6340 286° West 493 567 35,000  Level FlightAware ADS-B
Thu 09:45:53 PM 17.3160 -25.7280 286° West 493 567 35,000  Level FlightAware ADS-B
Thu 09:46:29 PM 17.3350 -25.7980 286° West 493 567 35,000  Level FlightAware ADS-B
Thu 09:47:16 PM 17.3600 -25.8900 286° West 493 567 35,000  Level FlightAware ADS-B
Thu 09:47:52 PM 17.3800 -25.9600 287° West 493 567 35,000  Level FlightAware ADS-B
Thu 09:48:41 PM 17.4060 -26.0560 286° West 493 567 35,000  Level FlightAware ADS-B
Thu 09:49:29 PM 17.4320 -26.1500 286° West 493 567 35,000  Level FlightAware ADS-B
Thu 09:50:42 PM 17.4710 -26.2920 286° West 493 567 35,000  Level FlightAware ADS-B
Thu 09:51:30 PM 17.4960 -26.3860 286° West 493 567 35,000 20 Level FlightAware ADS-B
Thu 09:54:00 PM 17.6351 -26.6944 295° West  Level Estimated
Thu 09:55:00 PM 17.6905 -26.8179 295° West  Level Estimated
Thu 09:56:00 PM 17.7460 -26.9415 295° West  Level Estimated
Thu 09:57:00 PM 17.8013 -27.0651 295° West  Level Estimated
Thu 09:58:00 PM 17.8566 -27.1888 295° West  Level Estimated
Thu 09:59:00 PM 17.9117 -27.3126 295° West  Level Estimated
Thu 10:00:00 PM 17.9668 -27.4365 295° West  Level Estimated
Thu 10:01:00 PM 18.0219 -27.5605 295° West  Level Estimated
Thu 10:02:00 PM 18.0768 -27.6845 295° West  Level Estimated
Thu 10:03:00 PM 18.1317 -27.8086 295° West  Level Estimated
Thu 10:04:00 PM 18.1864 -27.9328 295° West  Level Estimated
Thu 10:05:00 PM 18.2411 -28.0571 295° West  Level Estimated
Thu 10:06:00 PM 18.2958 -28.1814 295° West  Level Estimated
Thu 10:07:00 PM 18.3503 -28.3058 295° West  Level Estimated
Thu 10:08:00 PM 18.4048 -28.4303 295° West  Level Estimated
Thu 10:09:00 PM 18.4591 -28.5549 295° West  Level Estimated
Thu 10:10:00 PM 18.5134 -28.6796 295° West  Level Estimated
Thu 10:11:00 PM 18.5677 -28.8043 295° West  Level Estimated
Thu 10:12:00 PM 18.6218 -28.9291 295° West  Level Estimated
Thu 10:13:00 PM 18.6758 -29.0540 295° West  Level Estimated
Thu 10:14:00 PM 18.7298 -29.1790 295° West  Level Estimated
Thu 10:15:00 PM 18.7837 -29.3040 294° West  Level Estimated
Thu 10:16:00 PM 18.8375 -29.4292 294° West  Level Estimated
Thu 10:17:00 PM 18.8912 -29.5544 294° West  Level Estimated
Thu 10:18:00 PM 18.9449 -29.6797 294° West  Level Estimated
Thu 10:19:00 PM 18.9984 -29.8050 294° West  Level Estimated
Thu 10:20:00 PM 19.0519 -29.9305 294° West  Level Estimated
Thu 10:21:00 PM 19.1053 -30.0560 294° West  Level Estimated
Thu 10:22:00 PM 19.1586 -30.1817 294° West  Level Estimated
Thu 10:23:00 PM 19.2118 -30.3074 294° West  Level Estimated
Thu 10:24:00 PM 19.2649 -30.4331 294° West  Level Estimated
Thu 10:25:00 PM 19.3180 -30.5590 294° West  Level Estimated
Thu 10:26:00 PM 19.3709 -30.6849 294° West  Level Estimated
Thu 10:27:00 PM 19.4238 -30.8110 294° West  Level Estimated
Thu 10:28:00 PM 19.4766 -30.9371 294° West  Level Estimated
Thu 10:29:00 PM 19.5293 -31.0633 294° West  Level Estimated
Thu 10:30:00 PM 19.5819 -31.1896 294° West  Level Estimated
Thu 10:31:00 PM 19.6344 -31.3159 294° West  Level Estimated
Thu 10:32:00 PM 19.6868 -31.4423 294° West  Level Estimated
Thu 10:33:00 PM 19.7392 -31.5689 294° West  Level Estimated
Thu 10:34:00 PM 19.7914 -31.6955 294° West  Level Estimated
Thu 10:35:00 PM 19.8436 -31.8221 294° West  Level Estimated
Thu 10:36:00 PM 19.8957 -31.9489 294° West  Level Estimated
Thu 10:37:00 PM 19.9477 -32.0758 294° West  Level Estimated
Thu 10:38:00 PM 19.9996 -32.2027 294° West  Level Estimated
Thu 10:39:00 PM 20.0514 -32.3297 293° West  Level Estimated
Thu 10:40:00 PM 20.1031 -32.4568 293° West  Level Estimated
Thu 10:41:00 PM 20.1547 -32.5840 293° West  Level Estimated
Thu 10:42:00 PM 20.2062 -32.7113 293° West  Level Estimated
Thu 10:43:00 PM 20.2577 -32.8386 293° West  Level Estimated
Thu 10:44:00 PM 20.3090 -32.9661 293° West  Level Estimated
Thu 10:45:00 PM 20.3603 -33.0936 293° West  Level Estimated
Thu 10:46:00 PM 20.4114 -33.2212 293° West  Level Estimated
Thu 10:47:00 PM 20.4625 -33.3489 293° West  Level Estimated
Thu 10:48:00 PM 20.5135 -33.4767 293° West  Level Estimated
Thu 10:49:00 PM 20.5644 -33.6045 293° West  Level Estimated
Thu 10:50:00 PM 20.6152 -33.7325 293° West  Level Estimated
Thu 10:51:00 PM 20.6658 -33.8605 293° West  Level Estimated
Thu 10:52:00 PM 20.7164 -33.9887 293° West  Level Estimated
Thu 10:53:00 PM 20.7670 -34.1169 293° West  Level Estimated
Thu 10:54:00 PM 20.8174 -34.2451 293° West  Level Estimated
Thu 10:55:00 PM 20.8677 -34.3735 293° West  Level Estimated
Thu 10:56:00 PM 20.9179 -34.5020 293° West  Level Estimated
Thu 10:57:00 PM 20.9680 -34.6305 293° West  Level Estimated
Thu 10:58:00 PM 21.0181 -34.7592 293° West  Level Estimated
Thu 10:59:00 PM 21.0680 -34.8879 293° West  Level Estimated
Thu 11:00:00 PM 21.1178 -35.0167 293° West  Level Estimated
Thu 11:01:00 PM 21.1676 -35.1458 292° West  Level Estimated
Thu 11:02:00 PM 21.2173 -35.2749 292° West  Level Estimated
Thu 11:03:00 PM 21.2669 -35.4042 292° West  Level Estimated
Thu 11:04:00 PM 21.3165 -35.5335 292° West  Level Estimated
Thu 11:05:00 PM 21.3659 -35.6629 292° West  Level Estimated
Thu 11:06:00 PM 21.4152 -35.7924 292° West  Level Estimated
Thu 11:07:00 PM 21.4644 -35.9220 292° West  Level Estimated
Thu 11:08:00 PM 21.5135 -36.0517 292° West  Level Estimated
Thu 11:09:00 PM 21.5625 -36.1815 292° West  Level Estimated
Thu 11:10:00 PM 21.6114 -36.3113 292° West  Level Estimated
Thu 11:11:00 PM 21.6602 -36.4413 292° West  Level Estimated
Thu 11:12:00 PM 21.7089 -36.5713 292° West  Level Estimated
Thu 11:13:00 PM 21.7575 -36.7014 292° West  Level Estimated
Thu 11:14:00 PM 21.8060 -36.8316 292° West  Level Estimated
Thu 11:15:00 PM 21.8545 -36.9619 292° West  Level Estimated
Thu 11:16:00 PM 21.9028 -37.0923 292° West  Level Estimated
Thu 11:17:00 PM 21.9510 -37.2228 292° West  Level Estimated
Thu 11:18:00 PM 21.9991 -37.3534 292° West  Level Estimated
Thu 11:19:00 PM 22.0470 -37.4840 292° West  Level Estimated
Thu 11:20:00 PM 22.0949 -37.6148 292° West  Level Estimated
Thu 11:21:00 PM 22.1427 -37.7456 292° West  Level Estimated
Thu 11:22:00 PM 22.1904 -37.8765 291° West  Level Estimated
Thu 11:23:00 PM 22.2380 -38.0075 291° West  Level Estimated
Thu 11:24:00 PM 22.2854 -38.1386 291° West  Level Estimated
Thu 11:25:00 PM 22.3328 -38.2698 291° West  Level Estimated
Thu 11:26:00 PM 22.3801 -38.4011 291° West  Level Estimated
Thu 11:27:00 PM 22.4272 -38.5324 291° West  Level Estimated
Thu 11:28:00 PM 22.4743 -38.6639 291° West  Level Estimated
Thu 11:29:00 PM 22.5212 -38.7954 291° West  Level Estimated
Thu 11:30:00 PM 22.5680 -38.9270 291° West  Level Estimated
Thu 11:31:00 PM 22.6148 -39.0588 291° West  Level Estimated
Thu 11:32:00 PM 22.6614 -39.1906 291° West  Level Estimated
Thu 11:32:24 PM 22.0000 -40.0000 284° West 476 548 37,000  Level New York Oceanic (ODAPS)
Thu 11:33:00 PM 22.7079 -39.3225 291° West  Level Estimated
Thu 11:34:00 PM 22.7543 -39.4545 291° West  Level Estimated
Thu 11:34:28 PM 22.0667 -40.2833 283° West 480 552 37,000  Level New York Oceanic (ODAPS)
Thu 11:35:00 PM 22.8006 -39.5865 291° West  Level Estimated
Thu 11:36:00 PM 22.8468 -39.7187 291° West  Level Estimated
Thu 11:37:00 PM 22.8929 -39.8510 291° West  Level Estimated
Thu 11:38:00 PM 22.1835 -40.8349 283° West 476 548 37,000  Level FlightAware Transoceanic
Thu 11:39:00 PM 22.2125 -40.9729 283° West 476 548 37,000  Level FlightAware Transoceanic
Thu 11:40:00 PM 22.2413 -41.1110 283° West 480 552 37,000  Level FlightAware Transoceanic
Thu 11:41:00 PM 22.2700 -41.2491 283° West 480 552 37,000  Level FlightAware Transoceanic
Thu 11:42:00 PM 22.2986 -41.3873 283° West 480 552 37,000  Level FlightAware Transoceanic
Thu 11:43:00 PM 22.3270 -41.5256 283° West 480 552 37,000  Level FlightAware Transoceanic
Thu 11:44:00 PM 22.3554 -41.6639 282° West 480 552 37,000  Level FlightAware Transoceanic
Thu 11:44:14 PM 22.3667 -41.6833 282° West 484 557 37,000  Level New York Oceanic (ODAPS)
Thu 11:45:00 PM 22.3836 -41.8023 282° West 480 552 37,000  Level FlightAware Transoceanic
Thu 11:46:00 PM 22.4117 -41.9407 282° West 480 552 37,000  Level FlightAware Transoceanic
Thu 11:47:00 PM 22.4397 -42.0792 282° West 480 552 37,000  Level FlightAware Transoceanic
Thu 11:48:00 PM 22.4676 -42.2177 282° West 480 552 37,000  Level FlightAware Transoceanic
Thu 11:49:00 PM 22.4954 -42.3563 282° West 480 552 37,000  Level FlightAware Transoceanic
Thu 11:50:00 PM 22.5385 -42.5456 282° West 484 557 37,000  Level FlightAware Transoceanic
Thu 11:51:00 PM 22.5666 -42.6895 282° West 484 557 37,000  Level FlightAware Transoceanic
Thu 11:52:00 PM 22.5947 -42.8335 282° West 484 557 37,000  Level FlightAware Transoceanic
Thu 11:53:00 PM 22.6226 -42.9775 282° West 484 557 37,000  Level FlightAware Transoceanic
Thu 11:54:00 PM 22.6504 -43.1216 282° West 484 557 37,000  Level FlightAware Transoceanic
Thu 11:55:00 PM 22.6781 -43.2657 282° West 484 557 37,000  Level FlightAware Transoceanic
Thu 11:56:00 PM 22.7056 -43.4100 282° West 484 557 37,000  Level FlightAware Transoceanic
Thu 11:57:00 PM 22.7330 -43.5542 282° West 484 557 37,000  Level FlightAware Transoceanic
Thu 11:58:00 PM 22.7603 -43.6985 282° West 484 557 37,000  Level FlightAware Transoceanic
Thu 11:58:03 PM 22.7500 -43.6667 282° West 482 555 37,000  Level New York Oceanic (ODAPS)
Thu 11:59:00 PM 22.7875 -43.8429 282° West 484 557 37,000  Level FlightAware Transoceanic
Fri 12:00:00 AM 22.8145 -43.9874 281° West 484 557 37,000  Level FlightAware Transoceanic
Fri 12:01:00 AM 22.8414 -44.1318 281° West 484 557 37,000  Level FlightAware Transoceanic
Fri 12:02:00 AM 22.8682 -44.2764 281° West 484 557 37,000  Level FlightAware Transoceanic
Fri 12:03:00 AM 22.8948 -44.4210 281° West 484 557 37,000  Level FlightAware Transoceanic
Fri 12:04:00 AM 22.9179 -44.5550 281° West 482 555 37,000  Level FlightAware Transoceanic
Fri 12:05:00 AM 22.9454 -44.7033 281° West 482 555 37,000  Level FlightAware Transoceanic
Fri 12:06:00 AM 22.9728 -44.8516 281° West 482 555 37,000  Level FlightAware Transoceanic
Fri 12:07:00 AM 23.0000 -45.0000 283° West 482 555 37,000  Level FlightAware Transoceanic
Fri 12:07:28 AM 23.0000 -45.0000 283° West 482 555 37,000  Level New York Oceanic (ODAPS)
Fri 12:08:00 AM 23.0299 -45.1379 283° West 482 555 37,000  Level FlightAware Transoceanic
Fri 12:09:00 AM 23.0597 -45.2758 283° West 482 555 37,000  Level FlightAware Transoceanic
Fri 12:10:00 AM 23.0894 -45.4137 283° West 482 555 37,000  Level FlightAware Transoceanic
Fri 12:11:00 AM 23.1189 -45.5518 283° West 482 555 37,000  Level FlightAware Transoceanic
Fri 12:11:57 AM 23.1333 -45.6333 283° West 477 549 37,000  Level New York Oceanic (ODAPS)
Fri 12:12:00 AM 23.1484 -45.6898 283° West 482 555 37,000  Level FlightAware Transoceanic
Fri 12:13:00 AM 23.1827 -45.8517 283° West 482 555 37,000  Level FlightAware Transoceanic
Fri 12:14:00 AM 23.2127 -45.9939 283° West 482 555 37,000  Level FlightAware Transoceanic
Fri 12:15:00 AM 23.2426 -46.1361 283° West 482 555 37,000  Level FlightAware Transoceanic
Fri 12:16:00 AM 23.2723 -46.2784 283° West 482 555 37,000  Level FlightAware Transoceanic
Fri 12:17:00 AM 23.3019 -46.4208 283° West 482 555 37,000  Level FlightAware Transoceanic
Fri 12:18:00 AM 23.3105 -46.4740 283° West 477 549 37,000  Level FlightAware Transoceanic
Fri 12:19:00 AM 23.3396 -46.6143 283° West 477 549 37,000  Level FlightAware Transoceanic
Fri 12:20:00 AM 23.3686 -46.7547 283° West 477 549 37,000  Level FlightAware Transoceanic
Fri 12:21:00 AM 23.3975 -46.8951 283° West 477 549 37,000  Level FlightAware Transoceanic
Fri 12:22:00 AM 23.4262 -47.0356 283° West 477 549 37,000  Level FlightAware Transoceanic
Fri 12:23:00 AM 23.4548 -47.1762 282° West 477 549 37,000  Level FlightAware Transoceanic
Fri 12:24:00 AM 23.4833 -47.3168 282° West 477 549 37,000  Level FlightAware Transoceanic
Fri 12:25:00 AM 23.5116 -47.4575 282° West 477 549 37,000  Level FlightAware Transoceanic
Fri 12:25:51 AM 23.5333 -47.6000 282° West 473 544 37,000  Level New York Oceanic (ODAPS)
Fri 12:26:00 AM 23.5398 -47.5982 282° West 477 549 37,000  Level FlightAware Transoceanic
Fri 12:27:00 AM 23.5679 -47.7390 282° West 477 549 37,000  Level FlightAware Transoceanic
Fri 12:28:00 AM 23.5959 -47.8799 282° West 477 549 37,000  Level FlightAware Transoceanic
Fri 12:29:00 AM 23.6237 -48.0208 282° West 477 549 37,000  Level FlightAware Transoceanic
Fri 12:30:00 AM 23.6514 -48.1618 282° West 477 549 37,000  Level FlightAware Transoceanic
Fri 12:31:00 AM 23.6790 -48.3029 282° West 477 549 37,000  Level FlightAware Transoceanic
Fri 12:32:00 AM 23.7023 -48.4451 282° West 473 544 37,000  Level FlightAware Transoceanic
Fri 12:33:00 AM 23.7300 -48.5862 282° West 473 544 37,000  Level FlightAware Transoceanic
Fri 12:34:00 AM 23.7576 -48.7273 282° West 473 544 37,000  Level FlightAware Transoceanic
Fri 12:35:00 AM 23.7850 -48.8684 282° West 473 544 37,000  Level FlightAware Transoceanic
Fri 12:36:00 AM 23.8123 -49.0097 282° West 473 544 37,000  Level FlightAware Transoceanic
Fri 12:37:00 AM 23.8395 -49.1510 282° West 473 544 37,000  Level FlightAware Transoceanic
Fri 12:38:00 AM 23.8666 -49.2923 282° West 473 544 37,000  Level FlightAware Transoceanic
Fri 12:39:00 AM 23.8935 -49.4338 282° West 473 544 37,000  Level FlightAware Transoceanic
Fri 12:39:41 AM 23.9167 -49.5167 281° West 462 532 37,000  Level New York Oceanic (ODAPS)
Fri 12:40:00 AM 23.9203 -49.5752 282° West 473 544 37,000  Level FlightAware Transoceanic
Fri 12:41:00 AM 23.9470 -49.7168 282° West 473 544 37,000  Level FlightAware Transoceanic
Fri 12:42:00 AM 23.9736 -49.8583 282° West 473 544 37,000  Level FlightAware Transoceanic
Fri 12:43:00 AM 24.0000 -50.0000 271° West 473 544 37,000  Level FlightAware Transoceanic
Fri 12:43:16 AM 24.0000 -50.0000 271° West 456 525 37,000  Level New York Oceanic (ODAPS)
Fri 12:44:00 AM 24.0022 -50.1389 271° West 473 544 37,000  Level FlightAware Transoceanic
Fri 12:45:00 AM 24.0043 -50.2777 271° West 473 544 37,000  Level FlightAware Transoceanic
Fri 12:46:00 AM 24.0062 -50.4166 271° West 462 532 37,000  Level FlightAware Transoceanic
Fri 12:47:00 AM 24.0080 -50.5555 271° West 462 532 37,000  Level FlightAware Transoceanic
Fri 12:48:00 AM 24.0097 -50.6944 271° West 462 532 37,000  Level FlightAware Transoceanic
Fri 12:49:00 AM 24.0113 -50.8332 271° West 456 525 37,000  Level FlightAware Transoceanic
Fri 12:50:00 AM 24.0127 -50.9721 271° West 456 525 37,000  Level FlightAware Transoceanic
Fri 12:51:00 AM 24.0140 -51.1110 271° West 456 525 37,000  Level FlightAware Transoceanic
Fri 12:52:00 AM 24.0152 -51.2499 271° West 456 525 37,000  Level FlightAware Transoceanic
Fri 12:53:00 AM 24.0163 -51.3888 270° West 456 525 37,000  Level FlightAware Transoceanic
Fri 12:53:33 AM 24.0167 -51.4167 270° West 446 513 37,000  Level New York Oceanic (ODAPS)
Fri 12:54:00 AM 24.0172 -51.5277 270° West 456 525 37,000  Level FlightAware Transoceanic
Fri 12:55:00 AM 24.0180 -51.6666 270° West 456 525 37,000  Level FlightAware Transoceanic
Fri 12:56:00 AM 24.0187 -51.8055 270° West 456 525 37,000  Level FlightAware Transoceanic
Fri 12:57:00 AM 24.0193 -51.9444 270° West 456 525 37,000  Level FlightAware Transoceanic
Fri 12:58:00 AM 24.0197 -52.0833 270° West 456 525 37,000  Level FlightAware Transoceanic
Fri 12:59:00 AM 24.0202 -52.2130 270° West 446 513 37,000  Level FlightAware Transoceanic
Fri 01:00:00 AM 24.0203 -52.3457 270° West 446 513 37,000  Level FlightAware Transoceanic
Fri 01:01:00 AM 24.0204 -52.4785 270° West 446 513 37,000  Level FlightAware Transoceanic
Fri 01:02:00 AM 24.0204 -52.6112 270° West 446 513 37,000  Level FlightAware Transoceanic
Fri 01:03:00 AM 24.0202 -52.7439 270° West 446 513 37,000  Level FlightAware Transoceanic
Fri 01:04:00 AM 24.0199 -52.8766 270° West 446 513 37,000  Level FlightAware Transoceanic
Fri 01:05:00 AM 24.0196 -53.0094 270° West 446 513 37,000  Level FlightAware Transoceanic
Fri 01:06:00 AM 24.0190 -53.1421 270° West 446 513 37,000  Level FlightAware Transoceanic
Fri 01:07:00 AM 24.0184 -53.2748 270° West 446 513 37,000  Level FlightAware Transoceanic
Fri 01:07:28 AM 24.0167 -53.2833 270° West 443 510 37,000  Level New York Oceanic (ODAPS)
Fri 01:08:00 AM 24.0177 -53.4075 270° West 446 513 37,000  Level FlightAware Transoceanic
Fri 01:09:00 AM 24.0168 -53.5402 270° West 446 513 37,000  Level FlightAware Transoceanic
Fri 01:10:00 AM 24.0159 -53.6730 270° West 446 513 37,000  Level FlightAware Transoceanic
Fri 01:11:00 AM 24.0148 -53.8057 269° West 446 513 37,000  Level FlightAware Transoceanic
Fri 01:12:00 AM 24.0136 -53.9384 269° West 446 513 37,000  Level FlightAware Transoceanic
Fri 01:13:00 AM 24.0114 -54.0757 269° West 443 510 37,000  Level FlightAware Transoceanic
Fri 01:14:00 AM 24.0101 -54.2077 269° West 443 510 37,000  Level FlightAware Transoceanic
Fri 01:15:00 AM 24.0087 -54.3398 269° West 443 510 37,000  Level FlightAware Transoceanic
Fri 01:16:00 AM 24.0072 -54.4719 269° West 443 510 37,000  Level FlightAware Transoceanic
Fri 01:17:00 AM 24.0055 -54.6039 269° West 443 510 37,000  Level FlightAware Transoceanic
Fri 01:18:00 AM 24.0038 -54.7359 269° West 443 510 37,000  Level FlightAware Transoceanic
Fri 01:19:00 AM 24.0020 -54.8680 269° West 443 510 37,000  Level FlightAware Transoceanic
Fri 01:20:00 AM 24.0000 -55.0000 271° West 443 510 37,000 682 Level FlightAware Transoceanic
Fri 01:20:28 AM 24.0000 -55.0000 271° West 439 505 38,000  Climbing New York Oceanic (ODAPS)
Fri 01:21:00 AM 24.0021 -55.1351 271° West 443 510 37,000  Descending FlightAware Transoceanic
Fri 01:21:20 AM 24.0000 -55.1167 271° West 439 505 38,000  Climbing New York Oceanic (ODAPS)
Fri 01:22:00 AM 24.0042 -55.2702 271° West 443 510 37,000 -600 Descending FlightAware Transoceanic
Fri 01:23:00 AM 24.0060 -55.4053 271° West 443 510 37,000  Level FlightAware Transoceanic
Fri 01:24:00 AM 24.0078 -55.5405 271° West 443 510 37,000  Level FlightAware Transoceanic
Fri 01:25:00 AM 24.0095 -55.6756 271° West 443 510 37,000 500 Level FlightAware Transoceanic
Fri 01:26:00 AM 24.0108 -55.7894 271° West 439 505 38,000 500 Climbing FlightAware Transoceanic
Fri 01:27:00 AM 24.0105 -55.9085 271° West 439 505 38,000  Level FlightAware Transoceanic
Fri 01:28:00 AM 24.0119 -56.0405 271° West 439 505 38,000  Level FlightAware Transoceanic
Fri 01:29:00 AM 24.0131 -56.1724 271° West 439 505 38,000  Level FlightAware Transoceanic
Fri 01:30:00 AM 24.0142 -56.3044 271° West 439 505 38,000  Level FlightAware Transoceanic
Fri 01:31:00 AM 24.0153 -56.4364 270° West 439 505 38,000  Level FlightAware Transoceanic
Fri 01:32:00 AM 24.0162 -56.5684 270° West 439 505 38,000  Level FlightAware Transoceanic
Fri 01:33:00 AM 24.0170 -56.7004 270° West 439 505 38,000  Level FlightAware Transoceanic
Fri 01:34:00 AM 24.0176 -56.8324 270° West 439 505 38,000  Level FlightAware Transoceanic
Fri 01:35:00 AM 24.0182 -56.9644 270° West 439 505 38,000  Level FlightAware Transoceanic
Fri 01:35:10 AM 24.0167 -56.9500 270° West 442 509 38,000  Level New York Oceanic (ODAPS)
Fri 01:36:00 AM 24.0187 -57.0964 270° West 439 505 38,000  Level FlightAware Transoceanic
Fri 01:37:00 AM 24.0190 -57.2284 270° West 439 505 38,000  Level FlightAware Transoceanic
Fri 01:38:00 AM 24.0192 -57.3603 270° West 439 505 38,000  Level FlightAware Transoceanic
Fri 01:39:00 AM 24.0193 -57.4923 270° West 439 505 38,000  Level FlightAware Transoceanic
Fri 01:40:00 AM 24.0193 -57.6243 270° West 439 505 38,000  Level FlightAware Transoceanic
Fri 01:41:00 AM 24.0181 -57.7457 270° West 442 509 38,000  Level FlightAware Transoceanic
Fri 01:42:00 AM 24.0180 -57.8783 270° West 442 509 38,000  Level FlightAware Transoceanic
Fri 01:43:00 AM 24.0177 -58.0109 270° West 442 509 38,000  Level FlightAware Transoceanic
Fri 01:44:00 AM 24.0173 -58.1436 270° West 442 509 38,000  Level FlightAware Transoceanic
Fri 01:45:00 AM 24.0168 -58.2762 270° West 442 509 38,000  Level FlightAware Transoceanic
Fri 01:46:00 AM 24.0162 -58.4088 270° West 442 509 38,000  Level FlightAware Transoceanic
Fri 01:47:00 AM 24.0155 -58.5414 270° West 442 509 38,000  Level FlightAware Transoceanic
Fri 01:48:00 AM 24.0147 -58.6740 270° West 442 509 38,000  Level FlightAware Transoceanic
Fri 01:49:00 AM 24.0137 -58.8066 270° West 442 509 38,000 952 Level FlightAware Transoceanic
Fri 01:49:03 AM 24.0167 -58.8333 269° West 453 521 39,000  Climbing New York Oceanic (ODAPS)
Fri 01:50:00 AM 24.0126 -58.9392 269° West 442 509 38,000 -513 Descending FlightAware Transoceanic
Fri 01:51:00 AM 24.0115 -59.0718 269° West 442 509 38,000  Level FlightAware Transoceanic
Fri 01:52:00 AM 24.0102 -59.2044 269° West 442 509 38,000  Level FlightAware Transoceanic
Fri 01:53:00 AM 24.0088 -59.3371 269° West 442 509 38,000  Level FlightAware Transoceanic
Fri 01:54:00 AM 24.0072 -59.4696 269° West 442 509 38,000 500 Level FlightAware Transoceanic
Fri 01:55:00 AM 24.0050 -59.7084 269° West 453 521 39,000 500 Climbing FlightAware Transoceanic
Fri 01:56:00 AM 24.0026 -59.8542 269° West 453 521 39,000  Level FlightAware Transoceanic
Fri 01:57:00 AM 24.0000 -60.0000 281° West 453 521 39,000  Level FlightAware Transoceanic
Fri 01:57:37 AM 24.0000 -60.0000 281° West 463 533 39,000  Level New York Oceanic (ODAPS)
Fri 01:58:00 AM 24.0254 -60.1400 281° West 453 521 39,000  Level FlightAware Transoceanic
Fri 01:59:00 AM 24.0506 -60.2801 281° West 453 521 39,000  Level FlightAware Transoceanic
Fri 02:00:00 AM 24.0757 -60.4202 281° West 453 521 39,000  Level FlightAware Transoceanic
Fri 02:01:00 AM 24.1007 -60.5604 281° West 453 521 39,000  Level FlightAware Transoceanic
Fri 02:02:00 AM 24.1255 -60.7006 281° West 453 521 39,000  Level FlightAware Transoceanic
Fri 02:02:56 AM 24.1333 -60.7333 281° West 465 535 39,000  Level New York Oceanic (ODAPS)
Fri 02:03:00 AM 24.1467 -60.8208 281° West 463 533 39,000  Level FlightAware Transoceanic
Fri 02:04:00 AM 24.1707 -60.9578 281° West 463 533 39,000  Level FlightAware Transoceanic
Fri 02:05:00 AM 24.1947 -61.0948 281° West 463 533 39,000  Level FlightAware Transoceanic
Fri 02:06:00 AM 24.2184 -61.2319 281° West 463 533 39,000  Level FlightAware Transoceanic
Fri 02:07:00 AM 24.2421 -61.3691 281° West 463 533 39,000  Level FlightAware Transoceanic
Fri 02:08:00 AM 24.2656 -61.5063 281° West 463 533 39,000  Level FlightAware Transoceanic
Fri 02:09:00 AM 24.2783 -61.5704 281° West 465 535 39,000  Level FlightAware Transoceanic
Fri 02:10:00 AM 24.3020 -61.7102 281° West 465 535 39,000  Level FlightAware Transoceanic
Fri 02:11:00 AM 24.3256 -61.8499 280° West 465 535 39,000  Level FlightAware Transoceanic
Fri 02:12:00 AM 24.3490 -61.9897 280° West 465 535 39,000  Level FlightAware Transoceanic
Fri 02:13:00 AM 24.3724 -62.1296 280° West 465 535 39,000  Level FlightAware Transoceanic
Fri 02:14:00 AM 24.3956 -62.2695 280° West 465 535 39,000  Level FlightAware Transoceanic
Fri 02:15:00 AM 24.4186 -62.4095 280° West 465 535 39,000  Level FlightAware Transoceanic
Fri 02:16:00 AM 24.4416 -62.5495 280° West 465 535 39,000  Level FlightAware Transoceanic
Fri 02:16:47 AM 24.4667 -62.6833 280° West 479 551 39,000  Level New York Oceanic (ODAPS)
Fri 02:17:00 AM 24.4644 -62.6895 280° West 465 535 39,000  Level FlightAware Transoceanic
Fri 02:18:00 AM 24.4871 -62.8296 280° West 465 535 39,000  Level FlightAware Transoceanic
Fri 02:18:14 AM 24.5000 -62.8667 280° West 479 551 39,000  Level New York Oceanic (ODAPS)
Fri 02:19:00 AM 24.5096 -62.9698 280° West 465 535 39,000  Level FlightAware Transoceanic
Fri 02:20:00 AM 24.5321 -63.1100 280° West 465 535 39,000  Level FlightAware Transoceanic
Fri 02:20:59 AM 24.5500 -63.2500 280° West 476 548 39,000  Level New York Oceanic (ODAPS)
Fri 02:21:00 AM 24.5544 -63.2503 280° West 465 535 39,000  Level FlightAware Transoceanic
Fri 02:22:00 AM 24.5765 -63.3906 280° West 465 535 39,000  Level FlightAware Transoceanic
Fri 02:23:00 AM 24.6065 -63.5667 280° West 479 551 39,000  Level FlightAware Transoceanic
Fri 02:24:00 AM 24.6359 -63.7395 280° West 479 551 39,000  Level FlightAware Transoceanic
Fri 02:25:00 AM 24.6581 -63.8852 279° West 479 551 39,000  Level FlightAware Transoceanic
Fri 02:26:00 AM 24.6801 -64.0309 279° West 479 551 39,000  Level FlightAware Transoceanic
Fri 02:27:00 AM 24.6825 -64.0927 280° West 476 548 39,000  Level FlightAware Transoceanic
Fri 02:28:00 AM 24.7041 -64.2333 280° West 476 548 39,000  Level FlightAware Transoceanic
Fri 02:29:00 AM 24.7256 -64.3740 280° West 476 548 39,000  Level FlightAware Transoceanic
Fri 02:30:00 AM 24.7470 -64.5147 279° West 476 548 39,000  Level FlightAware Transoceanic
Fri 02:30:39 AM 24.7667 -64.6167 279° West 483 556 39,000  Level New York Oceanic (ODAPS)
Fri 02:31:00 AM 24.7682 -64.6555 279° West 476 548 39,000  Level FlightAware Transoceanic
Fri 02:32:00 AM 24.7893 -64.7963 279° West 476 548 39,000  Level FlightAware Transoceanic
Fri 02:33:00 AM 24.8103 -64.9372 279° West 476 548 39,000  Level FlightAware Transoceanic
Fri 02:34:00 AM 24.8311 -65.0781 279° West 476 548 39,000  Level FlightAware Transoceanic
Fri 02:35:00 AM 24.8518 -65.2190 279° West 476 548 39,000  Level FlightAware Transoceanic
Fri 02:36:00 AM 24.8719 -65.3455 279° West 483 556 39,000  Level FlightAware Transoceanic
Fri 02:37:00 AM 24.8925 -65.4914 279° West 483 556 39,000  Level FlightAware Transoceanic
Fri 02:38:00 AM 24.9130 -65.6373 279° West 483 556 39,000  Level FlightAware Transoceanic
Fri 02:38:58 AM 24.9333 -65.7833 287° West 477 549 39,000  Level New York Oceanic (ODAPS)
Fri 02:39:00 AM 24.9333 -65.7833 287° West 483 556 39,000  Level FlightAware Transoceanic
Fri 02:40:00 AM 24.9721 -65.9275 286° West 483 556 39,000  Level FlightAware Transoceanic
Fri 02:41:00 AM 25.0107 -66.0717 286° West 483 556 39,000  Level FlightAware Transoceanic
Fri 02:42:00 AM 25.0492 -66.2160 286° West 483 556 39,000  Level FlightAware Transoceanic
Fri 02:43:00 AM 25.0876 -66.3605 286° West 483 556 39,000  Level FlightAware Transoceanic
Fri 02:44:00 AM 25.1258 -66.5050 286° West 483 556 39,000  Level FlightAware Transoceanic
Fri 02:44:31 AM 25.1500 -66.6167 286° West 482 555 39,000  Level New York Oceanic (ODAPS)
Fri 02:45:00 AM 25.1639 -66.6496 286° West 477 549 39,000  Level FlightAware Transoceanic
Fri 02:46:00 AM 25.2018 -66.7943 286° West 477 549 39,000  Level FlightAware Transoceanic
Fri 02:47:00 AM 25.2396 -66.9390 286° West 477 549 39,000  Level FlightAware Transoceanic
Fri 02:48:00 AM 25.2772 -67.0839 286° West 477 549 39,000  Level FlightAware Transoceanic
Fri 02:49:00 AM 25.3147 -67.2289 286° West 477 549 39,000  Level FlightAware Transoceanic
Fri 02:50:00 AM 25.3698 -67.4580 286° West 482 555 39,000  Level FlightAware Transoceanic
Fri 02:51:00 AM 25.4059 -67.5985 286° West 482 555 39,000  Level FlightAware Transoceanic
Fri 02:52:00 AM 25.4419 -67.7391 286° West 482 555 39,000  Level FlightAware Transoceanic
Fri 02:53:00 AM 25.4778 -67.8798 286° West 482 555 39,000  Level FlightAware Transoceanic
Fri 02:54:00 AM 25.5136 -68.0205 286° West 482 555 39,000  Level FlightAware Transoceanic
Fri 02:55:00 AM 25.5492 -68.1614 286° West 482 555 39,000  Level FlightAware Transoceanic
Fri 02:56:00 AM 25.5847 -68.3023 286° West 482 555 39,000  Level FlightAware Transoceanic
Fri 02:57:00 AM 25.6201 -68.4433 286° West 482 555 39,000  Level FlightAware Transoceanic
Fri 02:58:00 AM 25.6553 -68.5844 285° West 482 555 39,000  Level FlightAware Transoceanic
Fri 02:58:23 AM 25.6667 -68.6000 285° West 484 557 39,000  Level New York Oceanic (ODAPS)
Fri 02:59:00 AM 25.6904 -68.7256 285° West 482 555 39,000  Level FlightAware Transoceanic
Fri 03:00:00 AM 25.7253 -68.8669 285° West 482 555 39,000  Level FlightAware Transoceanic
Fri 03:01:00 AM 25.7602 -69.0082 285° West 482 555 39,000  Level FlightAware Transoceanic
Fri 03:02:00 AM 25.7948 -69.1497 285° West 482 555 39,000  Level FlightAware Transoceanic
Fri 03:03:00 AM 25.8294 -69.2912 285° West 482 555 39,000  Level FlightAware Transoceanic
Fri 03:04:00 AM 25.8638 -69.4328 285° West 482 555 39,000  Level FlightAware Transoceanic
Fri 03:05:00 AM 25.9014 -69.5792 285° West 484 557 39,000  Level FlightAware Transoceanic
Fri 03:06:00 AM 25.9344 -69.7194 285° West 484 557 39,000  Level FlightAware Transoceanic
Fri 03:07:00 AM 25.9673 -69.8596 285° West 484 557 39,000  Level FlightAware Transoceanic
Fri 03:08:00 AM 26.0000 -70.0000 270° West 484 557 39,000  Level FlightAware Transoceanic
Fri 03:08:07 AM 26.0000 -70.0000 270° West 498 573 39,000  Level New York Oceanic (ODAPS)
Fri 03:09:00 AM 25.9991 -70.1549 270° West 484 557 39,000  Level FlightAware Transoceanic
Fri 03:10:00 AM 25.9981 -70.3099 270° West 484 557 39,000  Level FlightAware Transoceanic
Fri 03:11:00 AM 25.9969 -70.4648 269° West 484 557 39,000  Level FlightAware Transoceanic
Fri 03:12:00 AM 25.9955 -70.6197 269° West 484 557 39,000  Level FlightAware Transoceanic
Fri 03:12:16 AM 26.0000 -70.6500 269° West 497 572 39,000  Level New York Oceanic (ODAPS)
Fri 03:13:00 AM 25.9939 -70.7746 269° West 484 557 39,000  Level FlightAware Transoceanic
Fri 03:14:00 AM 25.9922 -70.9295 269° West 498 573 39,000  Level FlightAware Transoceanic
Fri 03:15:00 AM 25.9904 -71.0844 269° West 498 573 39,000  Level FlightAware Transoceanic
Fri 03:16:00 AM 25.9883 -71.2393 269° West 498 573 39,000  Level FlightAware Transoceanic
Fri 03:17:00 AM 25.9861 -71.3942 269° West 498 573 39,000  Level FlightAware Transoceanic
Fri 03:18:00 AM 25.9868 -71.5703 269° West 497 572 39,000  Level FlightAware Transoceanic
Fri 03:19:00 AM 25.9840 -71.7237 269° West 497 572 39,000  Level FlightAware Transoceanic
Fri 03:20:00 AM 25.9811 -71.8771 269° West 497 572 39,000  Level FlightAware Transoceanic
Fri 03:21:00 AM 25.9780 -72.0304 269° West 497 572 39,000  Level FlightAware Transoceanic
Fri 03:22:00 AM 25.9748 -72.1838 269° West 497 572 39,000  Level FlightAware Transoceanic
Fri 03:23:00 AM 25.9713 -72.3371 269° West 497 572 39,000  Level FlightAware Transoceanic
Fri 03:24:00 AM 25.9678 -72.4904 268° West 497 572 39,000  Level FlightAware Transoceanic
Fri 03:25:00 AM 25.9640 -72.6438 268° West 497 572 39,000  Level FlightAware Transoceanic
Fri 03:26:00 AM 25.9601 -72.7971 268° West 497 572 39,000  Level FlightAware Transoceanic
Fri 03:26:08 AM 25.9500 -72.7500 269° West 490 564 39,000  Level New York Oceanic (ODAPS)
Fri 03:27:00 AM 25.9561 -72.9503 268° West 497 572 39,000  Level FlightAware Transoceanic
Fri 03:28:00 AM 25.9518 -73.1036 268° West 497 572 39,000  Level FlightAware Transoceanic
Fri 03:29:00 AM 25.9475 -73.2569 268° West 497 572 39,000  Level FlightAware Transoceanic
Fri 03:29:18 AM 25.9433 -73.2494 268° West 509 586 39,000  Level Miami Center
Fri 03:30:00 AM 25.9429 -73.4102 268° West 497 572 39,000  Level FlightAware Transoceanic
Fri 03:30:18 AM 25.9367 -73.3950 267° West 509 586 39,000  Level Miami Center
Fri 03:31:00 AM 25.9382 -73.5634 268° West 497 572 39,000  Level FlightAware Transoceanic
Fri 03:31:18 AM 25.9275 -73.5433 266° West 503 579 39,000  Level Miami Center
Fri 03:32:00 AM 25.9333 -73.7167 269° West 490 564 39,000  Level FlightAware Transoceanic
Fri 03:32:19 AM 25.9453 -73.6906 278° West 503 579 39,000  Level Miami Center
Fri 03:33:00 AM 25.9299 -73.8638 268° West 490 564 39,000  Level FlightAware Transoceanic
Fri 03:33:19 AM 25.9506 -73.8336 272° West 489 563 39,000  Level Miami Center
Fri 03:34:00 AM 25.9264 -74.0110 268° West 490 564 39,000 915 Level FlightAware Transoceanic
Fri 03:34:18 AM 25.9722 -73.9811 279° West 489 563 39,900 769 Climbing Miami Center
Fri 03:35:18 AM 26.0064 -74.1258 285° West 489 563 40,000 50 Climbing Miami Center
Fri 03:36:19 AM 26.0300 -74.2711 280° West 484 557 40,000  Level Miami Center
Fri 03:37:20 AM 26.0575 -74.4161 282° West 492 566 40,000  Level Miami Center
Fri 03:38:19 AM 26.0722 -74.5569 277° West 478 550 40,000  Level Miami Center
Fri 03:39:18 AM 26.1164 -74.7133 287° West 492 566 40,000  Level Miami Center
Fri 03:40:19 AM 26.1311 -74.8542 277° West 487 560 40,000  Level Miami Center
Fri 03:41:18 AM 26.1625 -75.0136 282° West 487 560 40,000  Level Miami Center
Fri 03:42:18 AM 26.1831 -75.1589 279° West 484 557 40,000  Level Miami Center
Fri 03:43:18 AM 26.2078 -75.3069 281° West 484 557 40,000  Level Miami Center
Fri 03:44:18 AM 26.2342 -75.4547 281° West 484 557 40,000  Level Miami Center
Fri 03:45:18 AM 26.2586 -75.5981 281° West 479 551 40,000  Level Miami Center
Fri 03:46:19 AM 26.2828 -75.7464 280° West 490 564 40,000  Level Miami Center
Fri 03:47:20 AM 26.3108 -75.8944 282° West 490 564 40,000  Level Miami Center
Fri 03:48:18 AM 26.3306 -76.0381 279° West 483 556 40,000  Level Miami Center
Fri 03:49:19 AM 26.3564 -76.1839 281° West 483 556 40,000  Level Miami Center
Fri 03:50:18 AM 26.3758 -76.3275 279° West 483 556 40,000  Level Miami Center
Fri 03:51:18 AM 26.4014 -76.4736 281° West 483 556 40,000  Level Miami Center
Fri 03:52:18 AM 26.4247 -76.6219 280° West 488 562 40,000  Level Miami Center
Fri 03:57:53 AM 26.5540 -77.4350 280° West 476 548 40,000  Level FlightAware ADS-B
Fri 03:58:40 AM 26.5680 -77.5320 279° West 477 549 40,000  Level FlightAware ADS-B
Fri 03:59:16 AM 26.5790 -77.6070 279° West 477 549 40,000  Level FlightAware ADS-B
Fri 03:59:58 AM 26.6010 -77.7370 281° West 471 542 40,000  Level FlightAware ADS-B
Fri 04:00:43 AM 26.6180 -77.8520 279° West 470 541 40,000  Level FlightAware ADS-B
Fri 04:01:23 AM 26.6320 -77.9460 279° West 467 537 40,000  Level FlightAware ADS-B
Fri 04:01:57 AM 26.6450 -78.0280 280° West 467 537 40,000  Level FlightAware ADS-B
Fri 04:02:43 AM 26.6610 -78.1360 279° West 466 536 40,000  Level FlightAware ADS-B
Fri 04:03:23 AM 26.6750 -78.2310 279° West 466 536 40,000  Level FlightAware ADS-B
Fri 04:03:59 AM 26.6870 -78.3080 280° West 468 539 40,000  Level FlightAware ADS-B
Fri 04:04:49 AM 26.7060 -78.4400 279° West 469 540 40,000  Level FlightAware ADS-B
Fri 04:05:30 AM 26.7210 -78.5380 280° West 470 541 40,000  Level FlightAware ADS-B
Fri 04:06:11 AM 26.7350 -78.6340 279° West 469 540 40,000  Level FlightAware ADS-B
Fri 04:06:55 AM 26.7500 -78.7400 279° West 469 540 40,000  Level FlightAware ADS-B
Fri 04:07:38 AM 26.7650 -78.8440 279° West 471 542 40,000  Level FlightAware ADS-B
Fri 04:08:20 AM 26.7800 -78.9460 279° West 471 542 40,000  Level FlightAware ADS-B
Fri 04:08:54 AM 26.7910 -79.0240 279° West 471 542 40,000  Level FlightAware ADS-B
Fri 04:09:41 AM 26.8070 -79.1380 279° West 472 543 40,000  Level FlightAware ADS-B
Fri 04:10:22 AM 26.8220 -79.2390 279° West 471 542 40,000  Level FlightAware ADS-B
Fri 04:11:06 AM 26.8370 -79.3450 279° West 470 541 40,000  Level FlightAware ADS-B
Fri 04:11:51 AM 26.8510 -79.4460 279° West 469 540 40,000  Level FlightAware ADS-B
Fri 04:12:31 AM 26.8650 -79.5470 279° West 468 539 40,000  Level FlightAware ADS-B
Fri 04:13:26 AM 26.8650 -79.6800 270° West 471 542 40,000  Level FlightAware ADS-B
Fri 04:14:05 AM 26.8550 -79.7730 263° West 472 543 40,000  Level FlightAware ADS-B
Fri 04:14:50 AM 26.8430 -79.8840 263° West 473 544 40,000  Level FlightAware ADS-B
Fri 04:15:33 AM 26.8310 -79.9880 263° West 474 545 40,000  Level FlightAware ADS-B
Fri 04:16:11 AM 26.8260 -80.0780 266° West 472 543 40,000  Level FlightAware ADS-B
Fri 04:16:41 AM 26.8230 -80.1500 267° West 473 544 40,000  Level FlightAware ADS-B
Fri 04:17:21 AM 26.8200 -80.2390 268° West 473 544 40,000  Level FlightAware ADS-B
Fri 04:17:56 AM 26.8160 -80.3340 267° West 472 543 40,000  Level FlightAware ADS-B
Fri 04:18:41 AM 26.8110 -80.4440 267° West 468 539 40,000  Level FlightAware ADS-B
Fri 04:19:21 AM 26.8070 -80.5390 267° West 468 539 40,000  Level FlightAware ADS-B
Fri 04:20:01 AM 26.8030 -80.6380 267° West 469 540 40,000  Level FlightAware ADS-B
Fri 04:20:46 AM 26.8020 -80.7460 269° West 469 540 40,000  Level FlightAware ADS-B
Fri 04:21:31 AM 26.8040 -80.8530 271° West 469 540 40,000  Level FlightAware ADS-B
Fri 04:22:06 AM 26.8060 -80.9380 272° West 463 533 40,000  Level FlightAware ADS-B
Fri 04:22:47 AM 26.8150 -81.0270 276° West 461 531 40,000  Level FlightAware ADS-B
Fri 04:23:26 AM 26.8520 -81.1210 294° West 457 526 40,000  Level FlightAware ADS-B
Fri 04:24:11 AM 26.8810 -81.2200 288° West 459 528 40,000  Level FlightAware ADS-B
Fri 04:24:41 AM 26.9010 -81.2920 287° West 461 531 40,000  Level FlightAware ADS-B
Fri 04:25:26 AM 26.9260 -81.3850 287° West 464 534 40,000  Level FlightAware ADS-B
Fri 04:26:04 AM 26.9540 -81.4840 288° West 467 537 40,000  Level FlightAware ADS-B
Fri 04:26:51 AM 26.9830 -81.5900 287° West 471 542 40,000  Level FlightAware ADS-B
Fri 04:27:31 AM 27.0100 -81.6850 288° West 474 545 40,000  Level FlightAware ADS-B
Fri 04:28:16 AM 27.0410 -81.7900 288° West 475 547 40,000  Level FlightAware ADS-B
Fri 04:29:10 AM 27.0770 -81.9130 288° West 475 547 40,000  Level FlightAware ADS-B
Fri 04:29:46 AM 27.1030 -82.0040 288° West 471 542 40,000  Level FlightAware ADS-B
Fri 04:30:30 AM 27.1330 -82.1050 288° West 472 543 40,000  Level FlightAware ADS-B
Fri 04:31:11 AM 27.1600 -82.2000 288° West 471 542 40,000  Level FlightAware ADS-B
Fri 04:31:46 AM 27.1840 -82.2830 288° West 472 543 40,000  Level FlightAware ADS-B
Fri 04:32:27 AM 27.2110 -82.3780 288° West 475 547 40,000  Level FlightAware ADS-B
Fri 04:33:11 AM 27.2410 -82.4800 288° West 469 540 40,000  Level FlightAware ADS-B
Fri 04:33:52 AM 27.2670 -82.5730 287° West 468 539 40,000  Level FlightAware ADS-B
Fri 04:34:35 AM 27.2960 -82.6730 288° West 470 541 40,000  Level FlightAware ADS-B
Fri 04:35:15 AM 27.3220 -82.7660 287° West 470 541 40,000  Level FlightAware ADS-B
Fri 04:35:58 AM 27.3510 -82.8690 288° West 469 540 40,000  Level FlightAware ADS-B
Fri 04:36:42 AM 27.3800 -82.9710 288° West 467 537 40,000  Level FlightAware ADS-B
Fri 04:37:23 AM 27.4060 -83.0640 287° West 469 540 40,000  Level FlightAware ADS-B
Fri 04:38:03 AM 27.4320 -83.1560 288° West 469 540 40,000  Level FlightAware ADS-B
Fri 04:38:46 AM 27.4610 -83.2590 288° West 471 542 40,000  Level FlightAware ADS-B
Fri 04:39:26 AM 27.4870 -83.3530 287° West 471 542 40,000  Level FlightAware ADS-B
Fri 04:40:06 AM 27.5130 -83.4460 288° West 469 540 40,000  Level FlightAware ADS-B
Fri 04:40:49 AM 27.5410 -83.5450 288° West 468 539 40,000  Level FlightAware ADS-B
Fri 04:41:32 AM 27.5680 -83.6450 287° West 465 535 40,000  Level FlightAware ADS-B
Fri 04:42:16 AM 27.5960 -83.7450 288° West 464 534 40,000  Level FlightAware ADS-B
Fri 04:42:57 AM 27.6220 -83.8410 287° West 462 532 40,000  Level FlightAware ADS-B
Fri 04:43:34 AM 27.6460 -83.9260 288° West 463 533 40,000  Level FlightAware ADS-B
Fri 04:44:13 AM 27.6710 -84.0170 287° West 464 534 40,000  Level FlightAware ADS-B
Fri 04:44:56 AM 27.6970 -84.1140 287° West 464 534 40,000  Level FlightAware ADS-B
Fri 04:45:34 AM 27.7210 -84.2040 287° West 463 533 40,000  Level FlightAware ADS-B
Fri 04:46:15 AM 27.7470 -84.2990 287° West 462 532 40,000  Level FlightAware ADS-B
Fri 04:46:55 AM 27.7720 -84.3910 287° West 461 531 40,000  Level FlightAware ADS-B
Fri 04:47:46 AM 27.8030 -84.5050 287° West 460 529 40,000  Level FlightAware ADS-B
Fri 04:48:27 AM 27.8290 -84.6020 287° West 459 528 40,000  Level FlightAware ADS-B
Fri 04:49:04 AM 27.8510 -84.6830 287° West 457 526 40,000  Level FlightAware ADS-B
Fri 04:49:49 AM 27.8780 -84.7850 287° West 456 525 40,000  Level FlightAware ADS-B
Fri 04:50:34 AM 27.9050 -84.8860 287° West 455 524 40,000  Level FlightAware ADS-B
Fri 04:51:14 AM 27.9290 -84.9790 286° West 455 524 40,000  Level FlightAware ADS-B
Fri 04:51:54 AM 27.9540 -85.0710 287° West 455 524 40,000  Level FlightAware ADS-B
Fri 04:52:34 AM 27.9780 -85.1620 287° West 454 522 40,000  Level FlightAware ADS-B
Fri 04:53:29 AM 28.0060 -85.2700 286° West 454 522 40,000  Level FlightAware ADS-B
Fri 04:54:05 AM 28.0230 -85.3400 285° West 454 522 40,000  Level FlightAware ADS-B
Fri 04:54:47 AM 28.0570 -85.4650 287° West 454 522 40,000  Level FlightAware ADS-B
Fri 04:55:27 AM 28.0810 -85.5580 286° West 456 525 40,000  Level FlightAware ADS-B
Fri 04:56:07 AM 28.1050 -85.6480 287° West 457 526 40,000  Level FlightAware ADS-B
Fri 04:56:47 AM 28.1250 -85.7260 286° West 457 526 40,000  Level FlightAware ADS-B
Fri 04:57:35 AM 28.1480 -85.8200 286° West 457 526 40,000  Level FlightAware ADS-B
Fri 04:58:13 AM 28.1800 -85.9390 287° West 464 534 40,000  Level FlightAware ADS-B
Fri 04:58:59 AM 28.2050 -86.0380 286° West 465 535 40,000  Level FlightAware ADS-B
Fri 04:59:35 AM 28.2230 -86.1100 286° West 465 535 40,000  Level FlightAware ADS-B
Fri 05:00:23 AM 28.2470 -86.2060 286° West 465 535 40,000  Level FlightAware ADS-B
Fri 05:00:59 AM 28.2660 -86.2780 287° West 465 535 40,000  Level FlightAware ADS-B
Fri 05:02:00 AM 28.2960 -86.4000 286° West 465 535 40,000  Level FlightAware ADS-B
Fri 05:02:36 AM 28.3140 -86.4720 286° West 465 535 40,000  Level FlightAware ADS-B
Fri 05:03:22 AM 28.3660 -86.6720 287° West 473 544 40,000  Level FlightAware ADS-B
Fri 05:04:06 AM 28.3920 -86.7750 286° West 473 544 40,000  Level FlightAware ADS-B
Fri 05:04:46 AM 28.4160 -86.8730 286° West 473 544 40,000  Level FlightAware ADS-B
Fri 05:05:28 AM 28.4410 -86.9730 286° West 473 544 40,000  Level FlightAware ADS-B
Fri 05:06:14 AM 28.4680 -87.0820 286° West 473 544 40,000  Level FlightAware ADS-B
Fri 05:06:54 AM 28.4910 -87.1760 286° West 472 543 40,000  Level FlightAware ADS-B
Fri 05:07:32 AM 28.5140 -87.2690 286° West 469 540 40,000  Level FlightAware ADS-B
Fri 05:08:16 AM 28.5390 -87.3730 285° West 469 540 40,000  Level FlightAware ADS-B
Fri 05:09:02 AM 28.5660 -87.4820 286° West 468 539 40,000  Level FlightAware ADS-B
Fri 05:09:42 AM 28.5890 -87.5760 286° West 466 536 40,000  Level FlightAware ADS-B
Fri 05:10:22 AM 28.6110 -87.6700 285° West 468 539 40,000  Level FlightAware ADS-B
Fri 05:11:07 AM 28.6370 -87.7760 286° West 467 537 40,000  Level FlightAware ADS-B
Fri 05:11:30 AM 28.6500 -87.8300 285° West 467 537 40,000  Level FlightAware ADS-B
Fri 05:12:12 AM 28.6740 -87.9310 285° West 467 537 40,000  Level FlightAware ADS-B
Fri 05:12:58 AM 28.7000 -88.0400 285° West 467 537 40,000  Level FlightAware ADS-B
Fri 05:13:32 AM 28.7180 -88.1210 284° West 467 537 40,000  Level FlightAware ADS-B
Fri 05:14:14 AM 28.7360 -88.2220 282° West 469 540 40,000  Level FlightAware ADS-B
Fri 05:14:58 AM 28.7560 -88.3290 282° West 474 545 40,000  Level FlightAware ADS-B
Fri 05:15:30 AM 28.7700 -88.4060 282° West 475 547 40,000  Level FlightAware ADS-B
Fri 05:16:12 AM 28.7890 -88.5090 282° West 475 547 40,000  Level FlightAware ADS-B
Fri 05:16:54 AM 28.8090 -88.6120 283° West 474 545 40,000  Level FlightAware ADS-B
Fri 05:17:38 AM 28.8280 -88.7190 281° West 464 534 40,000  Level FlightAware ADS-B
Fri 05:18:18 AM 28.8460 -88.8150 282° West 463 533 40,000  Level FlightAware ADS-B
Fri 05:19:02 AM 28.8650 -88.9200 282° West 464 534 40,000  Level FlightAware ADS-B
Fri 05:19:42 AM 28.8830 -89.0160 282° West 464 534 40,000  Level FlightAware ADS-B
Fri 05:20:22 AM 28.9000 -89.1100 282° West 464 534 40,000  Level FlightAware ADS-B
Fri 05:21:00 AM 28.9160 -89.1990 282° West 463 533 40,000  Level FlightAware ADS-B
Fri 05:21:43 AM 28.9340 -89.3020 281° West 462 532 40,000  Level FlightAware ADS-B
Fri 05:22:10 AM 28.9460 -89.3690 282° West 465 535 40,000  Level FlightAware ADS-B
Fri 05:23:15 AM 28.9740 -89.5240 282° West 465 535 40,000  Level FlightAware ADS-B
Fri 05:23:56 AM 28.9910 -89.6220 281° West 465 535 40,000  Level FlightAware ADS-B
Fri 05:24:46 AM 29.0100 -89.7330 281° West 464 534 40,000  Level FlightAware ADS-B
Fri 05:25:29 AM 29.0310 -89.8450 282° West 462 532 40,000  Level FlightAware ADS-B
Fri 05:26:06 AM 29.0430 -89.9200 280° West 462 532 40,000  Level FlightAware ADS-B
Fri 05:27:06 AM 29.0640 -90.0430 281° West 462 532 40,000  Level FlightAware ADS-B
Fri 05:27:42 AM 29.0770 -90.1160 282° West 462 532 40,000  Level FlightAware ADS-B
Fri 05:28:29 AM 29.0930 -90.2120 281° West 462 532 40,000  Level FlightAware ADS-B
Fri 05:29:05 AM 29.1050 -90.2860 281° West 462 532 40,000  Level FlightAware ADS-B
Fri 05:29:41 AM 29.1180 -90.3590 282° West 462 532 40,000  Level FlightAware ADS-B
Fri 05:30:24 AM 29.1690 -90.5450 287° West 460 529 40,000  Level FlightAware ADS-B
Fri 05:30:45 AM 29.1791 -90.5977 282° West 461 531 40,000  Level FlightAware ADS-B
Fri 05:31:19 AM 29.1957 -90.6792 283° West 462 532 40,000  Level FlightAware ADS-B
Fri 05:32:00 AM 29.2153 -90.7763 283° West 462 532 40,000  Level FlightAware ADS-B
Fri 05:32:30 AM 29.2297 -90.8483 283° West 460 529 40,000  Level FlightAware ADS-B
Fri 05:33:04 AM 29.2454 -90.9267 283° West 459 528 40,000  Level FlightAware ADS-B
Fri 05:33:55 AM 29.2699 -91.0490 283° West 459 528 40,000  Level FlightAware ADS-B
Fri 05:34:44 AM 29.2927 -91.1636 283° West 459 528 40,000  Level FlightAware ADS-B
Fri 05:35:14 AM 29.3069 -91.2350 283° West 459 528 40,000  Level FlightAware ADS-B
Fri 05:35:53 AM 29.3249 -91.3264 283° West 459 528 40,000  Level FlightAware ADS-B
Fri 05:36:23 AM 29.3390 -91.3979 283° West 459 528 40,000  Level FlightAware ADS-B
Fri 05:36:53 AM 29.3530 -91.4696 283° West 459 528 40,000  Level FlightAware ADS-B
Fri 05:37:24 AM 29.3672 -91.5415 283° West 458 527 40,000  Level FlightAware ADS-B
Fri 05:37:54 AM 29.3813 -91.6140 283° West 458 527 40,000  Level FlightAware ADS-B
Fri 05:38:24 AM 29.3952 -91.6856 283° West 458 527 40,000  Level FlightAware ADS-B
Fri 05:38:55 AM 29.4093 -91.7580 283° West 458 527 40,000  Level FlightAware ADS-B
Fri 05:39:26 AM 29.4233 -91.8308 282° West 458 527 40,000  Level FlightAware ADS-B
Fri 05:40:05 AM 29.4410 -91.9227 282° West 458 527 40,000  Level FlightAware ADS-B
Fri 05:40:37 AM 29.4556 -91.9988 282° West 460 529 40,000  Level FlightAware ADS-B
Fri 05:41:08 AM 29.4697 -92.0722 282° West 461 531 40,000  Level FlightAware ADS-B
Fri 05:41:38 AM 29.4837 -92.1456 282° West 461 531 40,000  Level FlightAware ADS-B
Fri 05:42:09 AM 29.4974 -92.2180 282° West 462 532 40,000  Level FlightAware ADS-B
Fri 05:42:39 AM 29.5111 -92.2903 282° West 461 531 40,000  Level FlightAware ADS-B
Fri 05:43:11 AM 29.5253 -92.3654 282° West 460 529 40,000  Level FlightAware ADS-B
Fri 05:43:41 AM 29.5390 -92.4382 282° West 460 529 40,000  Level FlightAware ADS-B
Fri 05:44:11 AM 29.5525 -92.5100 282° West 460 529 40,000  Level FlightAware ADS-B
Fri 05:44:41 AM 29.5659 -92.5819 282° West 463 533 40,000  Level FlightAware ADS-B
Fri 05:45:12 AM 29.5799 -92.6564 282° West 464 534 40,000  Level FlightAware ADS-B
Fri 05:45:42 AM 29.5933 -92.7288 282° West 466 536 40,000  Level FlightAware ADS-B
Fri 05:46:13 AM 29.6069 -92.8024 282° West 467 537 40,000  Level FlightAware ADS-B
Fri 05:46:43 AM 29.6204 -92.8755 282° West 467 537 40,000 -100 Level FlightAware ADS-B
Fri 05:47:13 AM 29.6338 -92.9482 282° West 463 533 39,900 -1,000 Descending FlightAware ADS-B
Fri 05:47:43 AM 29.6470 -93.0200 282° West 456 525 39,000 -2,700 Descending FlightAware ADS-B
Fri 05:48:13 AM 29.6602 -93.0919 282° West 467 537 37,200 -3,400 Descending FlightAware ADS-B
Fri 05:48:43 AM 29.6735 -93.1651 282° West 470 541 35,600 -3,100 Descending FlightAware ADS-B
Fri 05:49:13 AM 29.6869 -93.2386 282° West 470 541 34,100 -3,344 Descending FlightAware ADS-B
Fri 05:49:44 AM 29.7005 -93.3136 282° West 481 554 32,200 -4,131 Descending FlightAware ADS-B
Fri 05:50:14 AM 29.7143 -93.3902 282° West 492 566 29,900 -3,500 Descending FlightAware ADS-B
Fri 05:50:44 AM 29.7281 -93.4677 282° West 482 555 28,700 -2,400 Descending FlightAware ADS-B
Fri 05:51:14 AM 29.7414 -93.5418 282° West 470 541 27,500 -2,459 Descending FlightAware ADS-B
Fri 05:51:45 AM 29.7546 -93.6151 282° West 460 529 26,200 -2,361 Descending FlightAware ADS-B
Fri 05:52:15 AM 29.7675 -93.6870 282° West 452 520 25,100 -2,262 Descending FlightAware ADS-B
Fri 05:52:46 AM 29.7802 -93.7582 282° West 443 510 23,900 -2,361 Descending FlightAware ADS-B
Fri 05:53:16 AM 29.7924 -93.8276 281° West 437 503 22,700 -2,500 Descending FlightAware ADS-B
Fri 05:53:46 AM 29.8044 -93.8966 281° West 432 497 21,400 -2,459 Descending FlightAware ADS-B
Fri 05:54:17 AM 29.8163 -93.9639 282° West 425 489 20,200 -2,361 Descending FlightAware ADS-B
Fri 05:54:47 AM 29.8280 -94.0307 281° West 420 483 19,000 -2,500 Descending FlightAware ADS-B
Fri 05:55:17 AM 29.8396 -94.0968 281° West 418 481 17,700 -2,400 Descending FlightAware ADS-B
Fri 05:55:47 AM 29.8509 -94.1620 281° West 412 474 16,600 -2,200 Descending FlightAware ADS-B
Fri 05:56:17 AM 29.8621 -94.2259 281° West 406 467 15,500 -2,132 Descending FlightAware ADS-B
Fri 05:57:48 AM 29.8944 -94.4139 281° West 382 440 12,300 -1,983 Descending FlightAware ADS-B
Fri 05:58:18 AM 29.9046 -94.4728 281° West 370 426 11,500 -1,700 Descending FlightAware ADS-B
Fri 05:58:48 AM 29.9144 -94.5302 281° West 361 415 10,600 -1,059 Descending FlightAware ADS-B
Fri 05:59:43 AM 29.9309 -94.6267 281° West 318 366 10,000 -686 Descending FlightAware ADS-B
Fri 05:59:58 AM 29.9351 -94.6518 281° West 309 356 9,800 -800 Descending FlightAware ADS-B
Fri 06:00:13 AM 29.9392 -94.6752 281° West 301 346 9,600 -968 Descending FlightAware ADS-B
Fri 06:00:29 AM 29.9433 -94.6991 281° West 287 330 9,300 -1,935 Descending FlightAware ADS-B
Fri 06:00:44 AM 29.9471 -94.7220 281° West 283 326 8,600 -3,000 Descending FlightAware ADS-B
Fri 06:00:57 AM 29.9504 -94.7414 281° West 283 326 7,900 -2,786 Descending FlightAware ADS-B
Fri 06:01:12 AM 29.9542 -94.7643 281° West 288 331 7,300 -1,579 Descending FlightAware ADS-B
Fri 06:02:13 AM 29.9695 -94.8551 281° West 283 326 5,900 -1,176 Descending FlightAware ADS-B
Fri 06:03:40 AM 29.9908 -94.9821 281° West 267 307 4,400 -1,021 Descending FlightAware ADS-B
Fri 06:03:47 AM 29.9920 -94.9914 278° West 262 302 4,300 -667 Descending FlightAware ADS-B
Fri 06:03:58 AM 29.9930 -95.0064 273° West 255 293 4,200 -462 Descending FlightAware ADS-B
Fri 06:04:26 AM 29.9930 -95.0439 270° West 243 280 4,000 -450 Descending FlightAware ADS-B
Fri 06:04:38 AM 29.9932 -95.0596 271° West 236 272 3,900 -214 Descending FlightAware ADS-B
Fri 06:04:54 AM 29.9934 -95.0783 271° West 228 262 3,900 -571 Level FlightAware ADS-B
Fri 06:05:20 AM 29.9934 -95.1109 270° West 230 265 3,500 -1,024 Descending FlightAware ADS-B
Fri 06:05:35 AM 29.9934 -95.1291 270° West 223 257 3,200 -1,043 Descending FlightAware ADS-B
Fri 06:06:06 AM 29.9934 -95.1631 270° West 197 227 2,700 -923 Descending FlightAware ADS-B
Fri 06:06:14 AM 29.9935 -95.1715 271° West 189 217 2,600 -1,000 Descending FlightAware ADS-B
Fri 06:06:36 AM 29.9935 -95.1929 270° West 179 206 2,200 -973 Descending FlightAware ADS-B
Fri 06:06:51 AM 29.9936 -95.2062 271° West 160 184 2,000 -774 Descending FlightAware ADS-B
Fri 06:07:07 AM 29.9935 -95.2180 269° West 135 155 1,800 -774 Descending FlightAware ADS-B
Fri 06:07:22 AM 29.9935 -95.2285 270° West 129 148 1,600 -818 Descending FlightAware ADS-B
Fri 06:07:29 AM 29.9935 -95.2335 270° West 129 148 1,500 -706 Descending FlightAware ADS-B
Fri 06:07:39 AM 29.9935 -95.2401 270° West 128 147 1,400 -667 Descending FlightAware ADS-B
Fri 06:07:47 AM 29.9936 -95.2454 271° West 128 147 1,300 -429 Descending FlightAware ADS-B
Fri 06:07:53 AM 29.9936 -95.2498 270° West 128 147 1,300 -462 Level FlightAware ADS-B
Fri 06:08:00 AM 29.9936 -95.2544 270° West 128 147 1,200 -923 Descending FlightAware ADS-B
Fri 06:08:06 AM 29.9936 -95.2588 270° West 129 148 1,100 -923 Descending FlightAware ADS-B
Fri 06:08:13 AM 29.9935 -95.2636 269° West 129 148 1,000 -632 Descending FlightAware ADS-B
Fri 06:08:25 AM 29.9935 -95.2715 270° West 130 150 900 -667 Descending FlightAware ADS-B
Fri 06:08:40 AM 29.9935 -95.2824 270° West 131 151 700 -750 Descending FlightAware ADS-B
Fri 06:08:57 AM 29.9935 -95.2944 270° West 134 154 500 -545 Descending FlightAware ADS-B
Fri 06:09:13 AM 29.9935 -95.3055 270° West 136 157 400 -581 Descending FlightAware ADS-B
Fri 06:09:28 AM 29.9935 -95.3165 270° West 137 158 200 -800 Descending FlightAware ADS-B

Login

Don't have an account? Register now (free) for customized features, flight alerts, and more!